createdAt,value
2019-02-26T00:01:36.285Z,7.40
2019-02-26T00:05:47.841Z,7.43
2019-02-26T00:09:55.725Z,6.53
2019-02-26T00:14:03.873Z,7.53
2019-02-26T00:18:14.026Z,7.53
2019-02-26T00:22:22.246Z,6.70
2019-02-26T00:26:34.113Z,6.40
2019-02-26T00:30:42.481Z,6.30
2019-02-26T00:34:53.080Z,5.60
2019-02-26T00:39:02.910Z,7.83
2019-02-26T00:43:11.765Z,8.30
2019-02-26T00:47:19.553Z,8.13
2019-02-26T00:51:27.661Z,9.53
2019-02-26T00:55:37.362Z,10.10
2019-02-26T00:59:46.412Z,8.00
2019-02-26T01:03:55.397Z,8.80
2019-02-26T01:08:02.833Z,7.07
2019-02-26T01:12:13.219Z,6.90
2019-02-26T01:16:20.763Z,7.37
2019-02-26T01:20:30.234Z,7.27
2019-02-26T01:24:38.137Z,8.60
2019-02-26T01:28:48.280Z,6.80
2019-02-26T01:32:57.600Z,9.73
2019-02-26T01:37:05.960Z,8.37
2019-02-26T01:41:15.574Z,7.93
2019-02-26T01:45:25.020Z,6.93
2019-02-26T01:49:33.583Z,7.87
2019-02-26T01:53:42.327Z,6.87
2019-02-26T01:57:51.065Z,7.87
2019-02-26T02:01:59.372Z,7.27
2019-02-26T02:06:10.645Z,6.53
2019-02-26T02:10:17.346Z,6.77
2019-02-26T02:14:25.066Z,7.07
2019-02-26T02:18:32.668Z,7.83
2019-02-26T02:22:42.183Z,7.10
2019-02-26T02:26:52.961Z,7.17
2019-02-26T02:31:00.272Z,8.20
2019-02-26T02:35:10.109Z,7.20
2019-02-26T02:39:20.786Z,5.80
2019-02-26T02:43:28.025Z,6.40
2019-02-26T02:47:38.698Z,6.60
2019-02-26T02:51:46.400Z,6.00
2019-02-26T02:55:54.222Z,7.07
2019-02-26T03:00:02.964Z,7.10
2019-02-26T03:04:14.717Z,6.73
2019-02-26T03:08:22.627Z,6.27
2019-02-26T03:12:30.775Z,6.17
2019-02-26T03:16:41.945Z,7.07
2019-02-26T03:20:51.228Z,6.53
2019-02-26T03:24:59.601Z,6.77
2019-02-26T03:29:09.089Z,7.33
2019-02-26T03:33:16.707Z,6.80
2019-02-26T03:37:25.816Z,7.27
2019-02-26T03:41:33.761Z,7.73
2019-02-26T03:45:41.342Z,6.63
2019-02-26T03:49:50.091Z,7.90
2019-02-26T03:53:57.699Z,8.53
2019-02-26T03:58:06.104Z,7.80
2019-02-26T04:02:15.325Z,9.10
2019-02-26T04:06:23.877Z,7.00
2019-02-26T04:10:31.591Z,10.93
2019-02-26T04:14:39.717Z,10.07
2019-02-26T04:18:49.086Z,9.33
2019-02-26T04:22:57.294Z,9.00
2019-02-26T04:27:47.267Z,9.03
2019-02-26T04:32:43.565Z,8.10
2019-02-26T04:37:38.521Z,8.73
2019-02-26T04:42:11.944Z,7.60
2019-02-26T04:46:42.386Z,8.50
2019-02-26T04:50:51.815Z,8.67
2019-02-26T04:55:00.379Z,11.60
2019-02-26T04:59:09.818Z,11.63
2019-02-26T05:03:20.079Z,10.23
2019-02-26T05:07:27.883Z,10.57
2019-02-26T05:11:39.872Z,10.47
2019-02-26T05:15:45.762Z,11.33
2019-02-26T05:19:53.774Z,20.33
2019-02-26T05:24:03.010Z,14.23
2019-02-26T05:28:12.537Z,10.73
2019-02-26T05:32:21.855Z,21.43
2019-02-26T05:36:31.746Z,21.93
2019-02-26T05:40:42.757Z,16.43
2019-02-26T05:44:53.758Z,12.13
2019-02-26T05:49:00.639Z,14.80
2019-02-26T05:53:11.433Z,15.20
2019-02-26T05:57:29.164Z,11.60
2019-02-26T06:01:28.088Z,12.40
2019-02-26T06:05:41.134Z,13.33
2019-02-26T06:09:48.007Z,17.63
2019-02-26T06:13:58.317Z,20.30
2019-02-26T06:18:05.783Z,9.20
2019-02-26T06:22:16.956Z,9.33
2019-02-26T06:26:28.166Z,8.83
2019-02-26T06:30:33.424Z,18.83
2019-02-26T06:34:41.240Z,13.70
2019-02-26T06:38:49.760Z,9.97
2019-02-26T06:42:58.915Z,8.77
2019-02-26T06:47:07.294Z,10.20
2019-02-26T06:51:16.579Z,7.70
2019-02-26T06:55:24.748Z,8.10
2019-02-26T06:59:34.941Z,8.50
2019-02-26T07:03:42.715Z,8.47
2019-02-26T07:07:54.040Z,9.07
2019-02-26T07:12:01.808Z,8.73
2019-02-26T07:16:10.094Z,7.83
2019-02-26T07:20:17.746Z,8.13
2019-02-26T07:24:27.186Z,7.50
2019-02-26T07:28:39.187Z,6.83
2019-02-26T07:32:48.484Z,8.20
2019-02-26T07:36:56.429Z,7.93
2019-02-26T07:41:06.163Z,7.67
2019-02-26T07:45:19.685Z,7.37
2019-02-26T07:49:25.855Z,7.33
2019-02-26T07:53:34.186Z,9.00
2019-02-26T07:57:43.623Z,6.87
2019-02-26T08:01:51.504Z,7.80
2019-02-26T08:06:03.624Z,7.90
2019-02-26T08:10:14.457Z,10.20
2019-02-26T08:14:23.370Z,8.53
2019-02-26T08:18:32.249Z,8.77
2019-02-26T08:22:39.976Z,7.30
2019-02-26T08:26:49.683Z,7.77
2019-02-26T08:30:57.534Z,7.00
2019-02-26T08:35:05.745Z,7.97
2019-02-26T08:39:15.730Z,7.13
2019-02-26T08:43:23.630Z,6.87
2019-02-26T08:47:31.677Z,7.23
2019-02-26T08:51:39.875Z,6.90
2019-02-26T08:55:47.764Z,7.40
2019-02-26T08:59:55.520Z,7.87
2019-02-26T09:04:03.539Z,7.80
2019-02-26T09:08:13.343Z,8.53
2019-02-26T09:12:22.416Z,9.13
2019-02-26T09:16:32.789Z,7.80
2019-02-26T09:20:42.526Z,7.17
2019-02-26T09:24:52.045Z,9.10
2019-02-26T09:29:00.284Z,8.93
2019-02-26T09:33:10.857Z,7.80
2019-02-26T09:37:18.253Z,11.00
2019-02-26T09:41:26.488Z,9.90
2019-02-26T09:45:34.820Z,8.37
2019-02-26T09:49:42.519Z,10.13
2019-02-26T09:53:53.867Z,9.17
2019-02-26T09:58:03.558Z,8.77
2019-02-26T10:02:11.317Z,8.87
2019-02-26T10:06:21.607Z,8.47
2019-02-26T10:10:31.184Z,7.57
2019-02-26T10:14:38.901Z,8.63
2019-02-26T10:18:47.874Z,7.63
2019-02-26T10:23:00.000Z,8.10
2019-02-26T10:27:08.708Z,8.23
2019-02-26T10:31:16.064Z,9.10
2019-02-26T10:35:32.454Z,8.07
2019-02-26T10:39:33.334Z,8.50
2019-02-26T10:43:41.592Z,8.20
2019-02-26T10:47:51.337Z,7.90
2019-02-26T10:52:00.352Z,8.10
2019-02-26T10:56:08.595Z,8.17
2019-02-26T11:00:19.743Z,8.43
2019-02-26T11:04:34.647Z,7.60
2019-02-26T11:08:38.759Z,8.77
2019-02-26T11:12:48.233Z,8.57
2019-02-26T11:16:56.544Z,8.67
2019-02-26T11:21:04.855Z,9.07
2019-02-26T11:25:13.355Z,8.23
2019-02-26T11:29:22.738Z,7.77
2019-02-26T11:33:30.671Z,9.53
2019-02-26T11:37:42.242Z,8.40
2019-02-26T11:41:53.771Z,9.00
2019-02-26T11:46:01.558Z,9.23
2019-02-26T11:50:11.865Z,11.47
2019-02-26T11:54:19.618Z,10.33
2019-02-26T11:58:27.340Z,9.90
2019-02-26T12:02:37.070Z,8.80
2019-02-26T12:06:45.336Z,8.70
2019-02-26T12:10:57.659Z,8.47
2019-02-26T12:15:04.420Z,8.33
2019-02-26T12:19:12.601Z,9.40
2019-02-26T12:23:22.755Z,9.10
2019-02-26T12:27:30.276Z,8.77
2019-02-26T12:31:39.042Z,9.00
2019-02-26T12:35:46.833Z,8.63
2019-02-26T12:39:55.542Z,8.93
2019-02-26T12:44:10.662Z,8.30
2019-02-26T12:48:16.256Z,9.50
2019-02-26T12:52:25.117Z,8.33
2019-02-26T12:56:36.760Z,8.43
2019-02-26T13:00:43.088Z,8.83
2019-02-26T13:04:53.378Z,9.33
2019-02-26T13:09:00.561Z,9.73
2019-02-26T13:13:10.373Z,9.23
2019-02-26T13:17:21.005Z,9.80
2019-02-26T13:21:28.197Z,9.80
2019-02-26T13:25:36.354Z,10.77
2019-02-26T13:33:54.831Z,9.83
2019-02-26T13:38:03.142Z,11.67
2019-02-26T13:42:14.066Z,12.27
2019-02-26T13:46:20.735Z,11.37
2019-02-26T13:50:29.410Z,10.83
2019-02-26T13:54:37.449Z,11.00
2019-02-26T13:58:45.561Z,11.57
2019-02-26T14:02:53.878Z,10.80
2019-02-26T14:07:01.485Z,11.27
2019-02-26T14:11:09.522Z,10.10
2019-02-26T14:15:19.896Z,10.20
2019-02-26T14:19:27.677Z,11.00
2019-02-26T14:23:35.936Z,11.77
2019-02-26T14:27:44.015Z,11.87
2019-02-26T14:31:51.845Z,11.73
2019-02-26T14:36:00.147Z,10.43
2019-02-26T14:40:09.870Z,10.67
2019-02-26T14:44:17.921Z,11.23
2019-02-26T14:48:26.037Z,17.63
2019-02-26T14:52:33.758Z,11.10
2019-02-26T14:56:41.493Z,13.23
2019-02-26T15:00:57.344Z,13.77
2019-02-26T15:04:59.424Z,12.97
2019-02-26T15:09:08.651Z,12.37
2019-02-26T15:13:17.819Z,12.43
2019-02-26T15:17:25.496Z,12.40
2019-02-26T15:21:33.800Z,12.60
2019-02-26T15:25:44.080Z,12.87
2019-02-26T15:29:52.323Z,13.60
2019-02-26T15:34:00.711Z,13.27
2019-02-26T15:38:08.958Z,14.63
2019-02-26T15:42:19.122Z,13.57
2019-02-26T15:46:28.570Z,16.30
2019-02-26T15:50:37.750Z,14.43
2019-02-26T15:54:46.175Z,14.10
2019-02-26T15:58:54.379Z,13.43
2019-02-26T16:03:02.003Z,14.73
2019-02-26T16:07:10.187Z,17.87
2019-02-26T16:11:18.420Z,15.07
2019-02-26T16:15:26.322Z,15.73
2019-02-26T16:19:34.029Z,14.17
2019-02-26T16:23:42.158Z,14.30
2019-02-26T16:27:51.683Z,15.33
2019-02-26T16:31:59.702Z,14.20
2019-02-26T16:36:07.625Z,14.83
2019-02-26T16:40:15.756Z,15.03
2019-02-26T16:44:24.799Z,15.77
2019-02-26T16:48:33.030Z,16.57
2019-02-26T16:52:41.349Z,15.80
2019-02-26T16:56:50.243Z,16.03
2019-02-26T17:00:57.833Z,14.63
2019-02-26T17:05:06.185Z,15.67
2019-02-26T17:09:13.909Z,16.93
2019-02-26T17:13:22.428Z,18.30
2019-02-26T17:17:31.074Z,16.70
2019-02-26T17:21:38.864Z,17.07
2019-02-26T17:25:47.113Z,20.23
2019-02-26T17:29:55.044Z,17.53
2019-02-26T17:34:02.714Z,17.23
2019-02-26T17:38:12.360Z,16.83
2019-02-26T17:42:20.307Z,17.13
2019-02-26T17:46:28.683Z,16.73
2019-02-26T17:50:37.759Z,17.93
2019-02-26T17:54:45.452Z,20.47
2019-02-26T17:58:53.701Z,17.30
2019-02-26T18:03:07.352Z,18.27
2019-02-26T18:07:15.105Z,17.07
2019-02-26T18:11:23.611Z,17.07
2019-02-26T18:15:31.997Z,16.77
2019-02-26T18:19:40.861Z,18.00
2019-02-26T18:23:48.947Z,17.37
2019-02-26T18:27:57.665Z,16.63
2019-02-26T18:32:06.423Z,18.27
2019-02-26T18:36:16.024Z,17.27
2019-02-26T18:40:28.058Z,17.40
2019-02-26T18:44:35.637Z,18.30
2019-02-26T18:48:43.472Z,16.63
2019-02-26T18:52:52.282Z,16.70
2019-02-26T18:57:01.296Z,17.77
2019-02-26T19:01:09.626Z,19.47
2019-02-26T19:05:20.628Z,20.20
2019-02-26T19:09:27.856Z,21.33
2019-02-26T19:13:36.304Z,18.20
2019-02-26T19:17:45.953Z,18.20
2019-02-26T19:21:54.701Z,19.63
2019-02-26T19:26:02.627Z,19.10
2019-02-26T19:30:12.812Z,17.73
2019-02-26T19:34:21.135Z,18.03
2019-02-26T19:38:28.921Z,17.33
2019-02-26T19:42:37.333Z,17.33
2019-02-26T19:46:49.389Z,17.53
2019-02-26T19:50:55.537Z,18.63
2019-02-26T19:55:05.853Z,18.90
2019-02-26T19:59:15.412Z,18.57
2019-02-26T20:03:23.237Z,18.27
2019-02-26T20:07:32.524Z,18.60
2019-02-26T20:11:40.897Z,19.67
2019-02-26T20:15:49.617Z,18.47
2019-02-26T20:19:58.150Z,19.30
2019-02-26T20:24:05.710Z,18.37
2019-02-26T20:28:13.266Z,18.30
2019-02-26T20:32:21.410Z,16.73
2019-02-26T20:36:29.240Z,17.90
2019-02-26T20:40:37.490Z,19.03
2019-02-26T20:44:45.429Z,18.90
2019-02-26T20:48:53.739Z,17.27
2019-02-26T20:53:05.656Z,18.17
2019-02-26T20:57:11.371Z,18.10
2019-02-26T21:01:19.625Z,18.83
2019-02-26T21:05:27.374Z,19.83
2019-02-26T21:09:37.849Z,19.57
2019-02-26T21:13:45.319Z,19.47
2019-02-26T21:17:53.022Z,18.60
2019-02-26T21:22:01.150Z,19.10
2019-02-26T21:26:09.256Z,21.33
2019-02-26T21:30:17.891Z,21.20
2019-02-26T21:34:26.104Z,19.70
2019-02-26T21:38:38.609Z,20.37
2019-02-26T21:42:44.105Z,19.33
2019-02-26T21:46:53.738Z,18.23
2019-02-26T21:51:02.051Z,16.40
2019-02-26T21:55:10.145Z,15.63
2019-02-26T21:59:18.378Z,13.47
2019-02-26T22:03:26.519Z,13.53
2019-02-26T22:07:34.209Z,12.80
2019-02-26T22:11:42.424Z,14.13
2019-02-26T22:15:50.745Z,13.30
2019-02-26T22:19:58.457Z,14.63
2019-02-26T22:24:07.002Z,14.30
2019-02-26T22:28:15.815Z,15.17
2019-02-26T22:32:23.520Z,13.57
2019-02-26T22:36:33.310Z,13.63
2019-02-26T22:40:41.295Z,13.67
2019-02-26T22:44:49.002Z,13.63
2019-02-26T22:48:57.168Z,13.10
2019-02-26T22:53:05.080Z,13.03
2019-02-26T22:57:13.249Z,12.27
2019-02-26T23:01:36.383Z,11.97
2019-02-26T23:05:40.858Z,12.40
2019-02-26T23:09:52.086Z,12.30
2019-02-26T23:14:02.692Z,12.50
2019-02-26T23:18:09.908Z,13.77
2019-02-26T23:22:18.137Z,12.60
2019-02-26T23:26:26.467Z,12.73
2019-02-26T23:30:35.174Z,14.13
2019-02-26T23:34:43.623Z,13.33
2019-02-26T23:38:51.328Z,13.83
2019-02-26T23:42:59.034Z,13.17
2019-02-26T23:47:10.557Z,13.07
2019-02-26T23:51:21.030Z,13.40
2019-02-26T23:55:29.530Z,14.07
2019-02-26T23:59:37.608Z,12.73
